Time;durP1;ratioP1;P1;durP2;ratioP2;P2;SDS_P1;SDS_P2;PMS_P1;PMS_P2;Temp;Humidity;BMP_temperature;BMP_pressure;BME280_temperature;BME280_humidity;BME280_pressure;Samples;Min_cycle;Max_cycle;Signal;HPM_P1;HPM_P2
2021/12/28 00:02:18;;;;;;;5.25;4.07;;;10.30;75.80;;;;;;5023193;28;20059;-88
2021/12/28 00:04:43;;;;;;;5.00;3.80;;;10.30;75.80;;;;;;5040758;28;20047;-86
2021/12/28 00:07:09;;;;;;;5.30;3.88;;;10.30;75.80;;;;;;5023207;28;20033;-86
2021/12/28 00:09:35;;;;;;;4.68;3.70;;;10.30;75.80;;;;;;5039559;28;20029;-84
2021/12/28 00:12:01;;;;;;;5.22;3.95;;;10.30;75.80;;;;;;5006535;28;20029;-85
2021/12/28 00:14:34;;;;;;;5.00;3.80;;;10.30;75.80;;;;;;5022718;28;20060;-84
2021/12/28 00:19:45;;;;;;;5.32;4.20;;;10.40;75.80;;;;;;5024659;28;20033;-84
2021/12/28 00:22:10;;;;;;;5.25;3.83;;;10.40;75.80;;;;;;5038178;28;20033;-84
2021/12/28 00:24:36;;;;;;;5.22;4.10;;;10.40;75.80;;;;;;5038485;28;20033;-84
2021/12/28 00:27:03;;;;;;;4.80;3.55;;;10.40;75.80;;;;;;5005941;28;20045;-84
2021/12/28 00:29:30;;;;;;;5.30;4.13;;;10.40;75.90;;;;;;5038625;28;20436;-84
2021/12/28 00:31:56;;;;;;;5.28;3.90;;;10.40;75.80;;;;;;5023406;28;20028;-85
2021/12/28 00:34:22;;;;;;;5.53;4.20;;;10.40;75.80;;;;;;5007448;28;20505;-84
2021/12/28 00:36:48;;;;;;;5.00;4.00;;;10.40;75.80;;;;;;5022684;28;20025;-85
2021/12/28 00:39:13;;;;;;;5.15;3.97;;;10.40;75.80;;;;;;5021557;28;20120;-83
2021/12/28 00:41:40;;;;;;;5.75;4.10;;;10.40;75.80;;;;;;5021570;28;20033;-83
2021/12/28 00:44:07;;;;;;;5.18;4.05;;;10.40;75.80;;;;;;5005564;28;20029;-84
2021/12/28 00:46:33;;;;;;;5.45;4.07;;;10.40;75.80;;;;;;5038087;28;20056;-83
2021/12/28 00:48:58;;;;;;;4.82;3.63;;;10.40;75.80;;;;;;5039097;28;20033;-83
2021/12/28 00:51:25;;;;;;;5.40;4.18;;;10.40;75.80;;;;;;5037547;28;20033;-83
2021/12/28 00:53:51;;;;;;;5.45;3.97;;;10.40;76.40;;;;;;5021891;28;20075;-84
2021/12/28 00:56:17;;;;;;;5.18;4.00;;;10.40;75.80;;;;;;5037423;28;20017;-84
2021/12/28 00:58:42;;;;;;;6.07;4.40;;;10.40;75.80;;;;;;5021222;28;20036;-84
2021/12/28 01:01:08;;;;;;;5.65;4.07;;;10.40;75.80;;;;;;5021040;28;20029;-83
2021/12/28 01:03:37;;;;;;;5.35;4.28;;;10.40;75.80;;;;;;5021508;28;20029;-84
2021/12/28 01:06:05;;;;;;;5.55;4.07;;;10.40;75.80;;;;;;5021416;28;20044;-84
2021/12/28 01:08:38;;;;;;;5.60;4.18;;;10.40;75.80;;;;;;5037949;28;20041;-90
2021/12/28 01:11:07;;;;;;;5.70;4.15;;;10.40;75.80;;;;;;5038096;28;20037;-90
2021/12/28 01:13:41;;;;;;;6.15;4.00;;;10.40;75.80;;;;;;5030231;28;20028;-91
2021/12/28 01:16:20;;;;;;;6.95;4.20;;;10.40;75.80;;;;;;5021681;28;20039;-90
2021/12/28 01:18:55;;;;;;;6.03;3.90;;;10.40;75.80;;;;;;5037439;28;20533;-90
2021/12/28 01:21:25;;;;;;;5.95;3.83;;;10.40;75.90;;;;;;5021961;28;20025;-90
2021/12/28 01:23:54;;;;;;;5.30;4.07;;;10.40;75.90;;;;;;5006059;28;20037;-90
2021/12/28 01:26:20;;;;;;;5.47;3.90;;;10.40;75.90;;;;;;5020922;28;20505;-90
2021/12/28 01:28:49;;;;;;;5.88;3.72;;;10.40;75.90;;;;;;5021203;28;20029;-89
2021/12/28 01:31:15;;;;;;;5.88;3.75;;;10.40;76.00;;;;;;5037802;28;20503;-90
2021/12/28 01:33:44;;;;;;;5.50;3.75;;;10.40;76.00;;;;;;5038156;28;20021;-90
2021/12/28 01:36:10;;;;;;;6.05;3.78;;;10.40;76.00;;;;;;5021640;28;20033;-89
2021/12/28 01:38:45;;;;;;;5.32;3.78;;;10.40;76.00;;;;;;5027511;28;20108;-89
2021/12/28 01:41:15;;;;;;;5.85;3.83;;;10.40;76.00;;;;;;5041461;28;20119;-90
2021/12/28 01:43:43;;;;;;;5.90;4.10;;;10.40;76.00;;;;;;5021019;28;20025;-89
2021/12/28 01:46:09;;;;;;;4.78;3.70;;;10.40;76.00;;;;;;5037140;28;20040;-89
2021/12/28 01:48:44;;;;;;;5.20;3.63;;;10.40;76.00;;;;;;5037262;28;20108;-90
2021/12/28 01:51:16;;;;;;;;;;;10.30;76.10;;;;;;5055481;28;20121;-89
2021/12/28 01:53:44;;;;;;;6.57;3.50;;;10.30;76.00;;;;;;5037242;28;19912;-90
2021/12/28 01:56:26;;;;;;;6.15;3.45;;;10.30;75.90;;;;;;5020648;28;20115;-89
2021/12/28 01:58:57;;;;;;;5.60;3.75;;;10.30;76.10;;;;;;5020444;28;20473;-90
2021/12/28 02:01:24;;;;;;;5.78;3.63;;;10.30;76.10;;;;;;5037147;28;20060;-89
2021/12/28 02:03:56;;;;;;;5.32;3.80;;;10.30;76.20;;;;;;5038652;28;20028;-89
2021/12/28 02:06:27;;;;;;;5.22;3.58;;;10.30;76.20;;;;;;5021111;28;20024;-91
2021/12/28 02:08:56;;;;;;;5.68;3.63;;;10.30;76.20;;;;;;5020545;28;20071;-89
2021/12/28 02:11:25;;;;;;;4.82;3.30;;;10.30;76.20;;;;;;5020662;28;20029;-90
2021/12/28 02:13:51;;;;;;;5.50;3.25;;;10.30;76.30;;;;;;5037227;28;20029;-90
2021/12/28 02:16:17;;;;;;;5.82;3.50;;;10.30;76.20;;;;;;5036874;28;20021;-91
2021/12/28 02:18:46;;;;;;;5.97;3.47;;;10.30;76.20;;;;;;5022711;28;20040;-89
2021/12/28 02:21:25;;;;;;;5.15;3.35;;;10.30;76.20;;;;;;5024437;28;20029;-90
2021/12/28 02:23:51;;;;;;;5.40;3.50;;;10.30;76.30;;;;;;5024195;28;20118;-90
2021/12/28 02:26:25;;;;;;;4.80;3.45;;;10.30;76.20;;;;;;4997720;28;20048;-90
2021/12/28 02:28:54;;;;;;;5.63;3.15;;;10.30;76.30;;;;;;5005333;28;20026;-90
2021/12/28 02:31:25;;;;;;;5.15;3.20;;;10.30;76.20;;;;;;5004561;28;20041;-90
2021/12/28 02:33:51;;;;;;;6.38;3.75;;;10.30;76.30;;;;;;5004650;28;20021;-90
2021/12/28 02:36:20;;;;;;;6.85;4.20;;;10.30;76.20;;;;;;5006317;28;20108;-90
2021/12/28 02:38:49;;;;;;;5.00;3.67;;;10.30;76.30;;;;;;5003910;28;20029;-90
2021/12/28 02:41:18;;;;;;;5.25;3.60;;;10.30;76.30;;;;;;5038253;28;20450;-90
2021/12/28 02:44:01;;;;;;;4.93;3.35;;;10.30;76.30;;;;;;5005356;28;20133;-91
2021/12/28 02:46:27;;;;;;;4.85;3.15;;;10.30;76.30;;;;;;5004047;28;20029;-90
2021/12/28 02:49:06;;;;;;;7.85;3.95;;;10.30;76.30;;;;;;5021925;28;20025;-91
2021/12/28 02:51:40;;;;;;;5.38;3.30;;;10.30;76.30;;;;;;5004442;28;20037;-90
2021/12/28 02:54:05;;;;;;;5.53;3.25;;;10.30;76.30;;;;;;5003618;28;20042;-91
2021/12/28 02:56:34;;;;;;;5.85;3.60;;;10.30;76.30;;;;;;5020300;28;20072;-91
2021/12/28 02:59:05;;;;;;;5.20;3.60;;;10.30;76.30;;;;;;5006738;28;20033;-90
2021/12/28 03:01:39;;;;;;;5.22;3.50;;;10.30;76.30;;;;;;5011571;28;20128;-91
2021/12/28 03:04:10;;;;;;;5.00;3.45;;;10.30;76.30;;;;;;5006616;28;20034;-91
2021/12/28 03:06:39;;;;;;;4.63;3.10;;;10.30;76.30;;;;;;5020647;28;20077;-91
2021/12/28 03:09:21;;;;;;;5.72;2.97;;;10.30;76.30;;;;;;5006582;28;20026;-91
2021/12/28 03:11:47;;;;;;;7.30;3.22;;;10.30;76.30;;;;;;4989483;28;20041;-92
2021/12/28 03:14:28;;;;;;;5.70;3.15;;;10.30;76.30;;;;;;5011145;28;20541;-91
2021/12/28 03:16:54;;;;;;;4.72;3.03;;;10.30;76.40;;;;;;5010793;28;20088;-92
2021/12/28 03:19:25;;;;;;;7.25;3.10;;;10.30;76.30;;;;;;5013289;28;20115;-91
2021/12/28 03:22:14;;;;;;;4.45;2.90;;;10.30;76.30;;;;;;5030029;28;20049;-91
2021/12/28 03:24:45;;;;;;;5.30;3.50;;;10.30;76.30;;;;;;5026436;28;20053;-91
2021/12/28 03:27:21;;;;;;;4.65;3.08;;;10.30;76.30;;;;;;5021350;28;20080;-91
2021/12/28 03:29:53;;;;;;;5.38;3.58;;;10.30;76.40;;;;;;5003356;28;20029;-92
2021/12/28 03:35:22;;;;;;;4.25;2.95;;;10.30;76.40;;;;;;5019348;28;20033;-91
2021/12/28 03:37:52;;;;;;;4.78;2.80;;;10.20;76.30;;;;;;5003651;28;20124;-91
2021/12/28 03:40:32;;;;;;;3.85;3.00;;;10.30;76.40;;;;;;5003414;28;20091;-90
2021/12/28 03:43:08;;;;;;;;;;;10.20;76.40;;;;;;4990395;28;20041;-91
2021/12/28 03:45:54;;;;;;;;;;;;;;;;;;;;;
2021/12/28 03:48:23;;;;;;;4.55;3.20;;;10.20;76.30;;;;;;5019368;28;20116;-91
2021/12/28 03:50:58;;;;;;;;;;;;;;;;;;;;;
2021/12/28 03:53:36;;;;;;;4.80;3.15;;;10.20;77.10;;;;;;5019242;28;20486;-91
2021/12/28 03:56:25;;;;;;;4.82;2.90;;;10.20;76.50;;;;;;5002391;28;20033;-89
2021/12/28 03:58:52;;;;;;;5.07;3.03;;;10.20;76.50;;;;;;5002293;28;20121;-91
2021/12/28 04:01:34;;;;;;;4.68;2.88;;;10.20;76.50;;;;;;5018696;28;20529;-91
2021/12/28 04:04:08;;;;;;;3.95;2.58;;;10.20;76.50;;;;;;5003723;28;20068;-92
2021/12/28 04:06:39;;;;;;;3.42;2.47;;;10.20;76.50;;;;;;5017997;28;20041;-91
2021/12/28 04:09:19;;;;;;;4.43;2.63;;;10.20;76.50;;;;;;5003010;28;20053;-90
2021/12/28 04:11:51;;;;;;;3.70;2.80;;;10.20;76.50;;;;;;5002396;28;20463;-91
2021/12/28 04:14:24;;;;;;;4.78;2.85;;;10.20;76.50;;;;;;5002434;28;20508;-91
2021/12/28 04:16:53;;;;;;;5.18;3.15;;;10.10;76.50;;;;;;5002497;28;20060;-91
2021/12/28 04:19:22;;;;;;;4.72;2.78;;;10.10;76.50;;;;;;5004163;28;20057;-89
2021/12/28 04:22:00;;;;;;;4.75;2.90;;;10.10;76.50;;;;;;5019857;28;20037;-91
2021/12/28 04:24:36;;;;;;;4.53;2.95;;;10.10;76.50;;;;;;5016252;28;20030;-91
2021/12/28 04:27:06;;;;;;;4.15;2.80;;;10.20;76.50;;;;;;5032352;28;20052;-90
2021/12/28 04:29:46;;;;;;;4.15;2.70;;;10.10;76.50;;;;;;5037572;28;20037;-90
2021/12/28 04:32:15;;;;;;;4.25;2.78;;;10.10;76.50;;;;;;5026617;28;20088;-91
2021/12/28 04:34:47;;;;;;;4.65;3.00;;;10.10;76.50;;;;;;5038159;28;20033;-91
2021/12/28 04:37:15;;;;;;;4.22;2.80;;;10.10;76.50;;;;;;5038658;28;20025;-90
2021/12/28 04:39:43;;;;;;;4.50;2.83;;;10.10;76.50;;;;;;5038408;28;20079;-90
2021/12/28 04:42:13;;;;;;;4.38;2.53;;;10.20;76.50;;;;;;5038134;28;20033;-90
2021/12/28 04:44:46;;;;;;;5.18;2.85;;;10.10;76.50;;;;;;5038492;28;20039;-91
2021/12/28 04:47:12;;;;;;;4.82;2.83;;;10.10;76.50;;;;;;5038726;28;20099;-90
2021/12/28 04:49:38;;;;;;;5.13;2.90;;;10.10;76.50;;;;;;5037947;28;20029;-90
2021/12/28 04:52:12;;;;;;;5.03;2.65;;;10.10;76.50;;;;;;5037695;28;20043;-91
2021/12/28 04:54:40;;;;;;;5.20;2.97;;;10.10;76.50;;;;;;5038378;28;20028;-91
2021/12/28 04:57:14;;;;;;;4.05;2.67;;;10.10;76.50;;;;;;5055039;28;20056;-91
2021/12/28 04:59:42;;;;;;;4.45;2.70;;;10.10;76.50;;;;;;5038818;28;20067;-91
2021/12/28 05:02:21;;;;;;;;;;;;;;;;;;;;;
2021/12/28 05:05:05;;;;;;;;;;;;;;;;;;;;;
2021/12/28 05:07:32;;;;;;;4.63;2.70;;;10.10;76.50;;;;;;5055088;28;20036;-92
2021/12/28 05:10:13;;;;;;;4.35;3.20;;;10.10;76.50;;;;;;5054905;28;20438;-91
2021/12/28 05:12:52;;;;;;;3.97;2.80;;;10.10;76.50;;;;;;5023326;28;20041;-91
2021/12/28 05:15:25;;;;;;;4.25;2.75;;;10.10;76.50;;;;;;5055046;28;20035;-91
2021/12/28 05:18:11;;;;;;;4.90;3.08;;;10.10;76.50;;;;;;5038210;28;20033;-91
2021/12/28 05:20:48;;;;;;;4.28;2.85;;;10.10;76.50;;;;;;5039700;28;20029;-92
2021/12/28 05:23:24;;;;;;;3.45;2.72;;;10.10;76.50;;;;;;5037541;28;20124;-91
2021/12/28 05:26:02;;;;;;;4.68;2.70;;;10.10;76.60;;;;;;5037873;28;20059;-91
2021/12/28 05:28:37;;;;;;;4.78;2.78;;;10.10;76.50;;;;;;5038240;28;20032;-90
2021/12/28 05:31:12;;;;;;;4.03;2.63;;;10.10;76.50;;;;;;5054452;28;20045;-91
2021/12/28 05:33:48;;;;;;;4.35;2.58;;;10.10;76.60;;;;;;5054135;28;20029;-91
2021/12/28 05:36:33;;;;;;;3.95;2.67;;;10.10;76.60;;;;;;5054225;28;20033;-91
2021/12/28 05:38:59;;;;;;;4.73;2.67;;;10.10;76.50;;;;;;5037548;28;20128;-91
2021/12/28 05:41:27;;;;;;;5.25;2.60;;;10.10;77.20;;;;;;5040096;28;20059;-89
2021/12/28 05:44:00;;;;;;;4.50;2.50;;;10.10;76.60;;;;;;5043177;28;20029;-90
2021/12/28 05:46:34;;;;;;;4.90;2.70;;;10.10;76.60;;;;;;5023661;28;20144;-91
2021/12/28 05:49:12;;;;;;;;;;;;;;;;;;;;;
2021/12/28 05:51:43;;;;;;;3.30;2.40;;;10.10;76.60;;;;;;5053100;28;20033;-90
2021/12/28 05:54:19;;;;;;;5.60;2.50;;;10.10;76.60;;;;;;5037274;28;20045;-91
2021/12/28 05:56:48;;;;;;;4.43;2.60;;;10.10;76.60;;;;;;5054280;28;20026;-90
2021/12/28 05:59:23;;;;;;;4.10;2.50;;;10.10;76.60;;;;;;5037220;28;20021;-90
2021/12/28 06:01:59;;;;;;;4.53;2.85;;;10.10;76.60;;;;;;5054268;28;20033;-91
2021/12/28 06:04:33;;;;;;;4.47;2.40;;;10.10;76.70;;;;;;5037330;28;20033;-91
2021/12/28 06:07:08;;;;;;;4.90;2.53;;;10.10;76.70;;;;;;5037708;28;20056;-90
2021/12/28 06:09:40;;;;;;;3.25;2.25;;;10.10;76.60;;;;;;5036977;28;20033;-91
2021/12/28 06:12:10;;;;;;;5.45;2.58;;;10.10;76.70;;;;;;5037076;28;20095;-90
2021/12/28 06:14:36;;;;;;;3.58;2.25;;;10.10;76.60;;;;;;5036795;28;20029;-85
2021/12/28 06:17:11;;;;;;;4.18;2.55;;;10.10;76.60;;;;;;5037005;28;20041;-90
2021/12/28 06:19:46;;;;;;;2.58;2.13;;;10.10;76.70;;;;;;5022520;28;20187;-91
2021/12/28 06:22:14;;;;;;;5.68;2.40;;;10.10;76.60;;;;;;5043940;28;20013;-93
2021/12/28 06:25:33;;;;;;;4.72;2.40;;;10.10;76.60;;;;;;5065858;28;20069;-94
2021/12/28 06:28:49;;;;;;;;;;;;;;;;;;;;;
2021/12/28 06:31:29;;;;;;;4.60;2.10;;;10.20;76.60;;;;;;5054425;28;20037;-90
2021/12/28 06:34:08;;;;;;;4.32;2.45;;;10.10;76.60;;;;;;5053738;28;20047;-90
2021/12/28 06:36:49;;;;;;;4.53;2.17;;;10.10;76.70;;;;;;5053849;28;20032;-87
2021/12/28 06:39:19;;;;;;;4.55;2.35;;;10.10;76.70;;;;;;5037085;28;20116;-88
2021/12/28 06:42:06;;;;;;;4.05;2.28;;;10.10;76.70;;;;;;5037239;28;20060;-91
2021/12/28 06:44:56;;;;;;;2.70;2.08;;;10.10;76.80;;;;;;5053137;28;20082;-89
2021/12/28 06:47:31;;;;;;;4.68;2.28;;;10.10;76.60;;;;;;5036612;28;20110;-89
2021/12/28 06:50:27;;;;;;;4.20;2.35;;;10.20;76.70;;;;;;5037268;28;20029;-87
2021/12/28 06:53:13;;;;;;;3.28;2.08;;;10.10;76.70;;;;;;5053578;28;20090;-90
2021/12/28 06:55:41;;;;;;;3.33;2.08;;;10.10;76.70;;;;;;5036849;28;20032;-91
2021/12/28 06:58:08;;;;;;;4.18;1.98;;;10.20;76.70;;;;;;5036282;28;20025;-91
2021/12/28 07:00:43;;;;;;;3.05;2.00;;;10.20;76.80;;;;;;5037782;28;20041;-91
2021/12/28 07:03:22;;;;;;;2.83;1.80;;;10.20;76.70;;;;;;5055750;28;20041;-88
2021/12/28 07:05:55;;;;;;;4.05;1.92;;;10.20;76.80;;;;;;5045752;28;20124;-91
2021/12/28 07:09:03;;;;;;;5.00;2.03;;;10.20;76.80;;;;;;5030500;28;20135;-91
2021/12/28 07:11:45;;;;;;;4.18;2.10;;;10.20;76.80;;;;;;5027164;28;20128;-88
2021/12/28 07:14:18;;;;;;;2.95;1.80;;;10.20;76.80;;;;;;5028179;28;20029;-90
2021/12/28 07:16:46;;;;;;;4.07;2.30;;;10.20;76.70;;;;;;5040204;28;20075;-89
2021/12/28 07:19:27;;;;;;;3.47;1.90;;;10.20;76.80;;;;;;5040927;28;20128;-89
2021/12/28 07:26:26;;;;;;;4.05;2.13;;;10.20;76.90;;;;;;5051130;28;20045;-93
2021/12/28 07:28:58;;;;;;;;;;;10.20;76.80;;;;;;5024723;28;20040;-91
2021/12/28 07:32:06;;;;;;;;;;;;;;;;;;;;;
2021/12/28 07:38:10;;;;;;;4.47;2.10;;;10.20;76.90;;;;;;5050209;28;20033;-92
2021/12/28 07:41:41;;;;;;;3.97;1.90;;;10.20;76.80;;;;;;5044064;28;20037;-93
2021/12/28 07:44:40;;;;;;;2.97;1.80;;;10.20;76.90;;;;;;5039790;28;20044;-92
2021/12/28 07:47:35;;;;;;;2.75;1.85;;;10.20;76.80;;;;;;5024353;28;20101;-92
2021/12/28 07:50:25;;;;;;;2.38;1.70;;;10.20;76.90;;;;;;5040900;28;20036;-91
2021/12/28 07:53:38;;;;;;;;;;;;;;;;;;;;;
2021/12/28 07:56:30;;;;;;;4.35;2.00;;;10.30;77.00;;;;;;5040789;28;20025;-92
2021/12/28 07:59:22;;;;;;;3.05;1.73;;;10.30;77.50;;;;;;5027144;28;20143;-93
2021/12/28 08:02:01;;;;;;;3.30;1.65;;;10.30;76.90;;;;;;5048495;28;20107;-87
2021/12/28 08:05:18;;;;;;;3.33;1.70;;;10.30;76.90;;;;;;5034048;28;20029;-94
2021/12/28 08:07:57;;;;;;;3.78;1.75;;;10.30;77.00;;;;;;5036220;28;20076;-90
2021/12/28 08:10:35;;;;;;;4.65;2.00;;;10.30;76.80;;;;;;5075882;28;20025;-90
2021/12/28 08:13:11;;;;;;;4.07;1.90;;;10.30;76.90;;;;;;5071497;28;20572;-89
2021/12/28 08:15:50;;;;;;;2.95;1.80;;;10.30;76.80;;;;;;5028977;28;20052;-90
2021/12/28 08:18:18;;;;;;;2.35;1.50;;;10.30;76.90;;;;;;5026541;28;20111;-90
2021/12/28 08:20:46;;;;;;;3.58;1.77;;;10.40;76.90;;;;;;5022686;28;20062;-89
2021/12/28 08:23:13;;;;;;;2.72;1.50;;;10.40;76.90;;;;;;5007935;28;20037;-89
2021/12/28 08:25:40;;;;;;;2.63;1.60;;;10.40;76.90;;;;;;5039765;28;20025;-89
2021/12/28 08:28:16;;;;;;;3.25;1.80;;;10.40;76.90;;;;;;5038575;28;20055;-90
2021/12/28 08:31:01;;;;;;;4.85;2.30;;;10.40;76.90;;;;;;5023368;28;20098;-89
2021/12/28 08:33:31;;;;;;;3.50;1.58;;;10.40;76.80;;;;;;5022418;28;20461;-90
2021/12/28 08:36:00;;;;;;;2.95;1.50;;;10.40;76.80;;;;;;5022189;28;20036;-89
2021/12/28 08:38:28;;;;;;;2.65;1.70;;;10.40;76.80;;;;;;5021599;28;20048;-89
2021/12/28 08:40:56;;;;;;;2.60;1.65;;;10.50;76.90;;;;;;5037981;28;20436;-90
2021/12/28 08:43:33;;;;;;;2.88;1.75;;;10.50;76.90;;;;;;5039285;28;20028;-93
2021/12/28 08:46:03;;;;;;;2.35;1.65;;;10.50;76.80;;;;;;5021734;28;20064;-89
2021/12/28 08:48:32;;;;;;;2.90;1.50;;;10.50;76.80;;;;;;5022120;28;20037;-89
2021/12/28 08:51:20;;;;;;;3.35;1.70;;;10.50;76.80;;;;;;5027120;28;20037;-89
2021/12/28 08:53:52;;;;;;;3.05;1.50;;;10.50;76.80;;;;;;5005636;28;20087;-91
2021/12/28 08:56:39;;;;;;;2.75;1.50;;;10.50;76.80;;;;;;5040063;28;20037;-89
2021/12/28 08:59:15;;;;;;;3.33;1.67;;;10.50;76.80;;;;;;5022398;28;20031;-89
2021/12/28 09:02:00;;;;;;;3.17;1.70;;;10.50;76.80;;;;;;5021442;28;20473;-90
2021/12/28 09:04:43;;;;;;;1.80;1.40;;;10.50;76.90;;;;;;5037642;28;20035;-89
2021/12/28 09:07:23;;;;;;;2.78;1.55;;;10.60;76.90;;;;;;5021349;28;20040;-89
2021/12/28 09:09:55;;;;;;;3.78;1.77;;;10.60;76.90;;;;;;5037988;28;20033;-89
2021/12/28 09:12:29;;;;;;;3.08;1.67;;;10.60;76.90;;;;;;5055170;28;20036;-89
2021/12/28 09:15:05;;;;;;;2.40;1.58;;;10.60;76.90;;;;;;5038147;28;20411;-90
2021/12/28 09:21:46;;;;;;;2.80;1.40;;;10.60;77.00;;;;;;4995919;28;20118;-93
2021/12/28 09:24:34;;;;;;;3.38;1.77;;;10.60;76.80;;;;;;5036976;28;20108;-92
2021/12/28 09:27:03;;;;;;;1.92;1.55;;;10.60;76.90;;;;;;5016964;28;20475;-88
2021/12/28 09:29:35;;;;;;;2.65;1.60;;;10.60;76.80;;;;;;5017590;28;20136;-88
2021/12/28 09:32:02;;;;;;;1.67;1.23;;;10.70;76.90;;;;;;5034178;28;20041;-88
2021/12/28 09:34:40;;;;;;;2.17;1.30;;;10.60;76.90;;;;;;5020417;28;20017;-88
2021/12/28 09:37:11;;;;;;;1.70;1.48;;;10.70;76.90;;;;;;5053690;28;20039;-88
2021/12/28 09:39:37;;;;;;;2.20;1.45;;;10.70;76.90;;;;;;5036996;28;20028;-89
2021/12/28 09:42:16;;;;;;;1.40;1.30;;;10.70;76.90;;;;;;5038251;28;20029;-89
2021/12/28 09:44:51;;;;;;;1.73;1.30;;;10.70;76.90;;;;;;5037206;28;20033;-89
2021/12/28 09:47:27;;;;;;;1.92;1.67;;;10.70;76.90;;;;;;5055698;28;20080;-89
2021/12/28 09:49:53;;;;;;;3.22;1.73;;;10.80;76.90;;;;;;5042054;28;20033;-88
2021/12/28 09:52:22;;;;;;;2.63;1.50;;;10.80;76.90;;;;;;5039208;28;20025;-89
2021/12/28 09:57:41;;;;;;;1.42;1.30;;;10.80;76.90;;;;;;5041047;28;20040;-89
2021/12/28 10:00:18;;;;;;;1.90;1.35;;;10.80;76.90;;;;;;5038079;28;20036;-91
2021/12/28 10:02:53;;;;;;;2.20;1.30;;;10.80;76.90;;;;;;5037637;28;20056;-88
2021/12/28 10:05:30;;;;;;;1.70;1.40;;;10.80;76.90;;;;;;5037246;28;20032;-90
2021/12/28 10:08:33;;;;;;;3.00;1.20;;;10.90;76.90;;;;;;5053245;28;20044;-89
2021/12/28 10:11:09;;;;;;;;;;;10.90;76.90;;;;;;5055192;28;20017;-89
2021/12/28 10:13:37;;;;;;;1.35;1.00;;;10.90;76.80;;;;;;5053320;28;19955;-88
2021/12/28 10:16:03;;;;;;;1.33;1.17;;;10.90;76.80;;;;;;5036837;28;20016;-88
2021/12/28 10:18:29;;;;;;;1.98;1.30;;;10.90;76.90;;;;;;5036944;28;20132;-88
2021/12/28 10:20:59;;;;;;;1.58;1.20;;;10.90;76.90;;;;;;5053831;28;20064;-88
2021/12/28 10:23:31;;;;;;;1.38;1.10;;;10.90;77.00;;;;;;5037365;28;20041;-88
2021/12/28 10:26:05;;;;;;;1.35;1.10;;;11.00;77.00;;;;;;5036432;28;20465;-89
2021/12/28 10:28:37;;;;;;;1.50;1.40;;;11.00;77.00;;;;;;5053308;28;20028;-89
2021/12/28 10:31:18;;;;;;;1.40;1.30;;;11.00;77.00;;;;;;5036576;28;20025;-88
2021/12/28 10:33:55;;;;;;;1.45;1.13;;;11.00;77.00;;;;;;5053929;28;20527;-89
2021/12/28 10:36:32;;;;;;;1.70;1.20;;;11.00;77.00;;;;;;5053226;28;20033;-89
2021/12/28 10:39:06;;;;;;;1.42;1.27;;;11.10;77.00;;;;;;5038027;28;20119;-89
2021/12/28 10:41:36;;;;;;;1.45;1.23;;;11.10;76.90;;;;;;5040076;28;20029;-89
2021/12/28 10:44:04;;;;;;;1.20;1.10;;;11.10;76.90;;;;;;5056861;28;20401;-88
2021/12/28 10:46:35;;;;;;;1.30;1.20;;;11.10;76.90;;;;;;5040882;28;20032;-85
2021/12/28 10:49:29;;;;;;;1.42;1.25;;;11.10;76.90;;;;;;5041075;28;20040;-91
2021/12/28 10:52:43;;;;;;;;;;;;;;;;;;;;;
2021/12/28 10:55:31;;;;;;;1.30;1.20;;;11.20;77.00;;;;;;5057875;28;20040;-92
2021/12/28 11:03:12;;;;;;;;;;;;;;;;;;;;;
2021/12/28 11:18:55;;;;;;;1.40;1.30;;;11.20;77.10;;;;;;4763697;29;20053;-92
2021/12/28 11:22:50;;;;;;;;;;;;;;;;;;;;;
2021/12/28 11:25:37;;;;;;;;;;;;;;;;;;;;;
2021/12/28 11:28:45;;;;;;;1.25;1.20;;;11.30;77.00;;;;;;4966928;28;20045;-91
2021/12/28 11:31:47;;;;;;;1.40;1.30;;;11.30;77.10;;;;;;5006482;28;20063;-92
2021/12/28 11:34:48;;;;;;;;;;;;;;;;;;;;;
2021/12/28 11:41:48;;;;;;;1.50;1.40;;;11.40;77.20;;;;;;5050617;28;20124;-92
2021/12/28 11:48:24;;;;;;;;;;;;;;;;;;;;;
2021/12/28 11:55:04;;;;;;;1.40;1.30;;;11.50;77.10;;;;;;5003552;28;20107;-91
2021/12/28 12:25:37;;;;;;;1.80;1.30;;;11.60;77.30;;;;;;4884403;29;20123;-91
2021/12/28 12:29:09;;;;;;;;;;;;;;;;;;;;;
2021/12/28 12:36:37;;;;;;;;;;;;;;;;;;;;;
2021/12/28 13:22:57;;;;;;;1.35;1.10;;;11.80;77.30;;;;;;4838873;29;20045;-85
2021/12/28 13:25:32;;;;;;;1.85;1.17;;;11.80;77.30;;;;;;4888303;28;20037;-86
2021/12/28 13:28:12;;;;;;;3.13;1.20;;;11.80;77.30;;;;;;5030526;28;20107;-87
2021/12/28 13:30:48;;;;;;;1.90;1.10;;;11.90;77.30;;;;;;5037247;28;20040;-87
2021/12/28 13:33:21;;;;;;;1.95;1.58;;;11.90;77.30;;;;;;5054632;28;20028;-86
2021/12/28 13:35:56;;;;;;;2.65;1.23;;;11.90;77.20;;;;;;5037919;28;20465;-87
2021/12/28 13:38:28;;;;;;;2.05;1.30;;;12.00;77.20;;;;;;5037690;28;20374;-87
2021/12/28 13:53:24;;;;;;;;;;;;;;;;;;;;;
2021/12/28 13:56:57;;;;;;;;;;;;;;;;;;;;;
2021/12/28 14:00:40;;;;;;;3.03;1.33;;;12.00;77.20;;;;;;4917137;29;20052;-92
2021/12/28 14:06:56;;;;;;;2.80;1.40;;;12.00;77.20;;;;;;4881792;29;20071;-85
2021/12/28 14:09:53;;;;;;;1.58;1.27;;;12.00;77.00;;;;;;4987133;28;20065;-91
2021/12/28 14:16:06;;;;;;;3.08;1.40;;;12.10;77.10;;;;;;4983428;28;20039;-92
2021/12/28 14:18:49;;;;;;;2.35;1.60;;;12.10;77.00;;;;;;4982618;28;20048;-92
2021/12/28 14:21:46;;;;;;;3.83;1.45;;;12.00;76.90;;;;;;4977767;28;20048;-90
2021/12/28 14:24:29;;;;;;;1.95;1.30;;;12.10;77.10;;;;;;5041799;28;20362;-90
2021/12/28 14:26:58;;;;;;;3.45;1.33;;;12.10;76.90;;;;;;5040771;28;20095;-91
2021/12/28 14:29:32;;;;;;;2.67;1.50;;;12.10;76.90;;;;;;5039898;28;20045;-90
2021/12/28 14:32:37;;;;;;;2.58;1.60;;;12.10;76.90;;;;;;5040242;28;20025;-90
2021/12/28 14:35:36;;;;;;;3.60;1.67;;;12.20;77.00;;;;;;5056649;28;20044;-92
2021/12/28 14:38:45;;;;;;;;;;;;;;;;;;;;;
2021/12/28 14:41:30;;;;;;;3.63;1.77;;;12.20;76.90;;;;;;5057260;28;20025;-89
2021/12/28 14:44:21;;;;;;;3.90;1.42;;;12.20;76.90;;;;;;5025178;28;20037;-91
2021/12/28 14:47:03;;;;;;;4.32;1.27;;;12.20;76.90;;;;;;5040586;28;20025;-90
2021/12/28 14:49:37;;;;;;;2.35;1.50;;;12.20;76.80;;;;;;5025072;28;20466;-89
2021/12/28 14:52:40;;;;;;;5.40;2.15;;;12.20;76.80;;;;;;5057043;28;20029;-88
2021/12/28 14:55:27;;;;;;;;;;;;;;;;;;;;;
2021/12/28 14:58:24;;;;;;;5.47;1.70;;;12.20;76.80;;;;;;5056550;28;20045;-92
2021/12/28 15:00:55;;;;;;;3.25;1.60;;;12.20;76.80;;;;;;5028606;28;20127;-89
2021/12/28 15:03:34;;;;;;;4.07;1.80;;;12.20;76.70;;;;;;5040809;28;20040;-88
2021/12/28 15:06:10;;;;;;;4.32;1.58;;;12.20;76.70;;;;;;5041459;28;20033;-89
2021/12/28 15:08:52;;;;;;;2.22;1.40;;;12.20;76.80;;;;;;5040796;28;20079;-88
2021/12/28 15:11:44;;;;;;;4.25;1.58;;;12.20;76.80;;;;;;5040408;28;20032;-88
2021/12/28 15:14:22;;;;;;;4.00;1.75;;;12.20;76.80;;;;;;5040118;28;20033;-88
2021/12/28 15:17:01;;;;;;;3.72;1.50;;;12.20;76.70;;;;;;5056200;28;20032;-89
2021/12/28 15:19:55;;;;;;;2.80;1.27;;;12.20;76.70;;;;;;5042519;28;20128;-88
2021/12/28 15:23:06;;;;;;;4.22;1.40;;;12.20;76.70;;;;;;5056801;28;20037;-89
2021/12/28 15:26:19;;;;;;;3.60;1.35;;;12.20;76.80;;;;;;5041424;28;20425;-88
2021/12/28 15:28:57;;;;;;;2.90;1.58;;;12.20;76.80;;;;;;5027453;28;20131;-89
2021/12/28 15:31:39;;;;;;;2.22;1.30;;;12.20;76.70;;;;;;5039816;28;20175;-87
2021/12/28 15:34:28;;;;;;;3.65;1.33;;;12.20;76.70;;;;;;5040586;28;20052;-88
2021/12/28 15:36:57;;;;;;;3.47;1.88;;;12.20;76.80;;;;;;5040124;28;20017;-88
2021/12/28 15:39:33;;;;;;;2.67;1.48;;;12.20;76.70;;;;;;5038783;28;20124;-88
2021/12/28 15:42:14;;;;;;;3.25;1.45;;;12.20;76.70;;;;;;5056572;28;20086;-89
2021/12/28 15:44:50;;;;;;;3.20;1.40;;;12.20;76.70;;;;;;5026967;28;20041;-88
2021/12/28 15:47:41;;;;;;;;;;;;;;;;;;;;;
2021/12/28 15:50:27;;;;;;;3.25;1.50;;;12.10;76.60;;;;;;5056147;28;20446;-88
2021/12/28 15:52:56;;;;;;;2.40;1.35;;;12.10;76.60;;;;;;5039396;28;20029;-87
2021/12/28 15:55:51;;;;;;;2.88;1.45;;;12.10;76.70;;;;;;5055879;28;20039;-87
2021/12/28 15:58:20;;;;;;;2.60;1.40;;;12.10;76.70;;;;;;5055508;28;20117;-86
2021/12/28 16:00:45;;;;;;;2.25;1.05;;;12.10;76.70;;;;;;5038528;28;20021;-87
2021/12/28 16:03:14;;;;;;;3.08;1.48;;;12.10;76.70;;;;;;5038643;28;20098;-86
2021/12/28 16:05:43;;;;;;;5.93;1.67;;;12.10;76.70;;;;;;5039085;28;20033;-86
2021/12/28 16:12:19;;;;;;;4.43;1.90;;;12.10;76.80;;;;;;5057652;28;20078;-89
2021/12/28 16:14:48;;;;;;;3.22;1.48;;;12.10;76.70;;;;;;5029390;28;20496;-90
2021/12/28 16:17:27;;;;;;;3.00;1.30;;;12.10;76.80;;;;;;5056063;28;20029;-89
2021/12/28 16:20:00;;;;;;;2.22;1.40;;;12.00;76.90;;;;;;5028144;28;20501;-87
2021/12/28 16:22:27;;;;;;;3.60;1.50;;;12.00;76.80;;;;;;5021241;28;20040;-86
2021/12/28 16:24:58;;;;;;;2.72;1.60;;;12.00;76.80;;;;;;5054729;28;20114;-87
2021/12/28 16:27:35;;;;;;;3.70;1.30;;;12.00;76.90;;;;;;5038048;28;20053;-88
2021/12/28 16:30:10;;;;;;;3.47;1.42;;;12.00;76.90;;;;;;5054926;28;20474;-89
2021/12/28 16:33:02;;;;;;;2.28;1.40;;;12.00;76.80;;;;;;5038865;28;20033;-88
2021/12/28 16:36:06;;;;;;;1.58;1.17;;;12.00;76.90;;;;;;5055330;28;20044;-94
2021/12/28 16:39:15;;;;;;;4.70;1.50;;;12.00;76.90;;;;;;5039134;28;20051;-91